Sign in to follow this  
Guest Stratus_Fractus

One crazy METAR report

Recommended Posts

KBUF 012204Z 21010KT 1/4SM R23/2400V3500FT +TSSN FZFG BKN003 OVC028CB M04/M05 A2980 RMK AO2 TSB2159 OCNL LTGIC OHD TS OHD MOV NE P0000 $

Share this post


Link to post
Share on other sites
Help AVSIM continue to serve you!
Please donate today!

Create an account or sign in to comment

You need to be a member in order to leave a comment

Create an account

Sign up for a new account in our community. It's easy!

Register a new account

Sign in

Already have an account? Sign in here.

Sign In Now
Sign in to follow this